| time (UTC) | temp F | wind direction | speed MPH | gust MPH | rain 1hr in | rain 24hr in | rain mn in | humidity % | barometer mb |
| 20260510131530 | 47 | 327 | 6.0 | 12.0 | 0.00 | 0.02 | 0.00 | 57 | 1015.4 |
| 20260510130040 | 46 | 261 | 4.0 | 12.0 | 0.00 | 0.02 | 0.00 | 58 | 1015.2 |
| 20260510124526 | 46 | 246 | 2.0 | 8.0 | 0.00 | 0.02 | 0.00 | 63 | 1015.1 |
| 20260510123020 | 44 | 230 | 1.0 | 6.0 | 0.00 | 0.02 | 0.00 | 66 | 1014.9 |
| 20260510121515 | 43 | 248 | 2.0 | 7.0 | 0.00 | 0.02 | 0.00 | 70 | 1014.8 |
| 20260510120025 | 41 | 255 | 1.0 | 4.0 | 0.00 | 0.02 | 0.00 | 76 | 1014.8 |
| 20260510114513 | 40 | 246 | 2.0 | 4.0 | 0.00 | 0.02 | 0.00 | 77 | 1014.6 |
| 20260510113004 | 38 | 244 | 1.0 | 4.0 | 0.00 | 0.02 | 0.00 | 80 | 1014.4 |
| 20260510111600 | 37 | 244 | 2.0 | 4.0 | 0.00 | 0.02 | 0.00 | 80 | 1014.2 |
| 20260510110057 | 36 | 273 | 0.0 | 2.0 | 0.00 | 0.02 | 0.00 | 80 | 1013.8 |
| 20260510104558 | 35 | 273 | 0.0 | 2.0 | 0.00 | 0.02 | 0.00 | 80 | 1013.6 |
| 20260510103052 | 35 | 273 | 1.0 | 2.0 | 0.00 | 0.02 | 0.00 | 80 | 1013.5 |
| 20260510101550 | 35 | 273 | 0.0 | 1.0 | 0.00 | 0.02 | 0.00 | 79 | 1013.1 |
| 20260510100046 | 36 | 273 | 0.0 | 3.0 | 0.00 | 0.02 | 0.00 | 78 | 1012.9 |
| 20260510094544 | 36 | 284 | 0.0 | 3.0 | 0.00 | 0.02 | 0.00 | 79 | 1012.8 |
| 20260510093044 | 36 | 291 | 0.0 | 2.0 | 0.00 | 0.02 | 0.00 | 80 | 1012.5 |
| 20260510091540 | 36 | 291 | 0.0 | 0.0 | 0.00 | 0.02 | 0.00 | 80 | 1012.5 |
| 20260510090038 | 36 | 291 | 1.0 | 2.0 | 0.00 | 0.02 | 0.00 | 80 | 1012.3 |
| 20260510084537 | 36 | 291 | 0.0 | 4.0 | 0.00 | 0.02 | 0.00 | 80 | 1011.9 |
| 20260510083039 | 36 | 269 | 0.0 | 2.0 | 0.00 | 0.02 | 0.00 | 81 | 1011.8 |
| 20260510081535 | 37 | 271 | 0.0 | 2.0 | 0.00 | 0.02 | 0.00 | 81 | 1011.4 |
| 20260510080030 | 37 | 271 | 0.0 | 2.0 | 0.00 | 0.02 | 0.00 | 81 | 1011.2 |
| 20260510074528 | 37 | 277 | 1.0 | 3.0 | 0.00 | 0.02 | 0.00 | 80 | 1011.0 |
| 20260510073027 | 38 | 284 | 1.0 | 3.0 | 0.00 | 0.02 | 0.00 | 80 | 1010.7 |
| 20260510071526 | 37 | 283 | 0.0 | 2.0 | 0.00 | 0.02 | 0.00 | 82 | 1010.6 |
| 20260510070031 | 38 | 283 | 1.0 | 4.0 | 0.00 | 0.02 | 0.00 | 82 | 1010.7 |
| 20260510064532 | 37 | 173 | 1.0 | 4.0 | 0.00 | 0.02 | 0.00 | 82 | 1010.6 |
| 20260510063021 | 37 | 92 | 0.0 | 1.0 | 0.00 | 0.02 | 0.00 | 82 | 1010.3 |
| 20260510061523 | 37 | 92 | 1.0 | 2.0 | 0.00 | 0.02 | 0.00 | 82 | 1010.3 |
| 20260510060015 | 38 | 20 | 0.0 | 2.0 | 0.00 | 0.02 | 0.00 | 80 | 1010.2 |
| 20260510054513 | 39 | 20 | 0.0 | 1.0 | 0.00 | 0.02 | 0.00 | 79 | 1010.1 |
| 20260510053020 | 39 | 20 | 2.0 | 5.0 | 0.00 | 0.02 | 0.00 | 78 | 1009.8 |
| 20260510051512 | 39 | 19 | 3.0 | 6.0 | 0.00 | 0.02 | 0.00 | 79 | 1009.8 |
| 20260510050007 | 39 | 34 | 5.0 | 8.0 | 0.00 | 0.02 | 0.00 | 78 | 1009.6 |
| 20260510044510 | 40 | 36 | 6.0 | 9.0 | 0.00 | 0.02 | 0.00 | 76 | 1009.3 |
| 20260510043001 | 41 | 42 | 6.0 | 12.0 | 0.00 | 0.02 | 0.00 | 74 | 1009.1 |
| 20260510041557 | 42 | 26 | 8.0 | 12.0 | 0.00 | 0.02 | 0.00 | 72 | 1008.9 |
| 20260510040053 | 44 | 35 | 12.0 | 18.0 | 0.00 | 0.02 | 0.00 | 70 | 1008.6 |
| 20260510034550 | 46 | 299 | 0.0 | 2.0 | 0.00 | 0.02 | 0.02 | 64 | 1008.1 |
| 20260510033056 | 47 | 269 | 0.0 | 1.0 | 0.00 | 0.02 | 0.02 | 62 | 1008.0 |
| 20260510031546 | 48 | 269 | 0.0 | 4.0 | 0.00 | 0.02 | 0.02 | 60 | 1007.8 |
| 20260510030043 | 50 | 257 | 0.0 | 6.0 | 0.00 | 0.02 | 0.02 | 58 | 1007.5 |
| 20260510024541 | 50 | 308 | 2.0 | 5.0 | 0.00 | 0.02 | 0.02 | 58 | 1007.3 |
| 20260510023040 | 50 | 319 | 1.0 | 4.0 | 0.00 | 0.02 | 0.02 | 58 | 1006.8 |
| 20260510021538 | 51 | 308 | 3.0 | 13.0 | 0.00 | 0.02 | 0.02 | 59 | 1006.6 |
| 20260510020035 | 51 | 295 | 1.0 | 8.0 | 0.00 | 0.02 | 0.02 | 60 | 1006.4 |
| 20260510014533 | 52 | 270 | 1.0 | 8.0 | 0.00 | 0.02 | 0.02 | 59 | 1005.9 |
| 20260510013033 | 52 | 260 | 2.0 | 9.0 | 0.00 | 0.02 | 0.02 | 58 | 1005.6 |
| 20260510011533 | 52 | 314 | 0.0 | 6.0 | 0.00 | 0.02 | 0.02 | 59 | 1005.2 |
| 20260510010031 | 52 | 264 | 1.0 | 9.0 | 0.00 | 0.02 | 0.02 | 60 | 1004.8 |
| 20260510004531 | 53 | 339 | 1.0 | 8.0 | 0.00 | 0.02 | 0.02 | 61 | 1004.4 |
| 20260510003030 | 54 | 273 | 1.0 | 10.0 | 0.00 | 0.02 | 0.02 | 60 | 1004.1 |
| 20260510001531 | 55 | 355 | 3.0 | 11.0 | 0.00 | 0.02 | 0.02 | 58 | 1003.7 |
| 20260510000036 | 57 | 338 | 3.0 | 11.0 | 0.00 | 0.02 | 0.02 | 56 | 1003.3 |
| 20260509234539 | 59 | 306 | 4.0 | 15.0 | 0.00 | 0.02 | 0.02 | 52 | 1003.0 |
| 20260509233029 | 59 | 296 | 9.0 | 17.0 | 0.00 | 0.02 | 0.02 | 49 | 1002.7 |
| 20260509231529 | 60 | 216 | 6.0 | 18.0 | 0.00 | 0.02 | 0.02 | 48 | 1002.4 |
| 20260509230028 | 61 | 267 | 6.0 | 20.0 | 0.00 | 0.02 | 0.02 | 49 | 1001.9 |
| 20260509224538 | 61 | 219 | 6.0 | 17.0 | 0.00 | 0.02 | 0.02 | 50 | 1001.4 |
| 20260509223027 | 62 | 257 | 6.0 | 16.0 | 0.00 | 0.02 | 0.02 | 50 | 1001.1 |
| 20260509221530 | 63 | 318 | 8.0 | 16.0 | 0.00 | 0.02 | 0.02 | 50 | 1000.8 |
| 20260509220025 | 63 | 246 | 8.0 | 22.0 | 0.00 | 0.02 | 0.02 | 50 | 1000.6 |
| 20260509214524 | 64 | 290 | 7.0 | 19.0 | 0.00 | 0.02 | 0.02 | 45 | 1000.3 |
| 20260509213025 | 66 | 298 | 8.0 | 17.0 | 0.00 | 0.02 | 0.02 | 45 | 1000.2 |
| 20260509211523 | 66 | 266 | 9.0 | 20.0 | 0.00 | 0.02 | 0.02 | 42 | 1000.1 |
| 20260509210022 | 66 | 268 | 13.0 | 25.0 | 0.00 | 0.02 | 0.02 | 43 | 999.9 |
| 20260509204520 | 66 | 204 | 12.0 | 22.0 | 0.00 | 0.02 | 0.02 | 43 | 999.7 |
| 20260509203018 | 66 | 257 | 13.0 | 27.0 | 0.00 | 0.02 | 0.02 | 44 | 999.7 |
| 20260509201516 | 66 | 244 | 12.0 | 24.0 | 0.00 | 0.02 | 0.02 | 46 | 999.8 |
| 20260509200014 | 65 | 264 | 10.0 | 19.0 | 0.00 | 0.02 | 0.02 | 49 | 999.8 |
| 20260509194512 | 65 | 269 | 9.0 | 20.0 | 0.01 | 0.02 | 0.02 | 52 | 999.7 |
| 20260509193012 | 64 | 232 | 11.0 | 24.0 | 0.01 | 0.02 | 0.02 | 52 | 999.8 |
| 20260509191511 | 63 | 272 | 7.0 | 26.0 | 0.02 | 0.02 | 0.02 | 54 | 999.8 |
| 20260509190011 | 63 | 236 | 12.0 | 25.0 | 0.02 | 0.02 | 0.02 | 58 | 999.8 |
| 20260509184519 | 61 | 227 | 9.0 | 21.0 | 0.01 | 0.01 | 0.01 | 69 | 1000.3 |
| 20260509183010 | 57 | 274 | 9.0 | 21.0 | 0.01 | 0.01 | 0.01 | 74 | 1000.2 |
| 20260509181509 | 63 | 246 | 12.0 | 21.0 | 0.00 | 0.00 | 0.00 | 52 | 999.1 |
| 20260509180008 | 65 | 227 | 10.0 | 18.0 | 0.00 | 0.00 | 0.00 | 55 | 999.0 |
| 20260509174508 | 66 | 232 | 12.0 | 17.0 | 0.00 | 0.00 | 0.00 | 55 | 998.9 |
| 20260509173005 | 65 | 209 | 11.0 | 21.0 | 0.00 | 0.00 | 0.00 | 60 | 999.4 |
| 20260509171502 | 64 | 191 | 7.0 | 17.0 | 0.00 | 0.00 | 0.00 | 63 | 999.7 |
| 20260509170100 | 63 | 201 | 8.0 | 17.0 | 0.00 | 0.00 | 0.00 | 65 | 999.8 |
| 20260509164559 | 62 | 128 | 9.0 | 23.0 | 0.00 | 0.00 | 0.00 | 67 | 999.7 |
| 20260509163058 | 62 | 173 | 10.0 | 19.0 | 0.00 | 0.00 | 0.00 | 66 | 999.7 |
| 20260509161602 | 60 | 205 | 7.0 | 23.0 | 0.00 | 0.00 | 0.00 | 70 | 999.8 |
| 20260509160051 | 59 | 164 | 9.0 | 21.0 | 0.00 | 0.00 | 0.00 | 72 | 999.7 |
| 20260509154553 | 58 | 185 | 9.0 | 21.0 | 0.00 | 0.00 | 0.00 | 67 | 1000.0 |
| 20260509153101 | 58 | 189 | 6.0 | 15.0 | 0.00 | 0.00 | 0.00 | 64 | 1000.3 |
| 20260509151557 | 58 | 173 | 6.0 | 13.0 | 0.00 | 0.00 | 0.00 | 67 | 1000.5 |
| 20260509150045 | 58 | 192 | 10.0 | 23.0 | 0.00 | 0.00 | 0.00 | 68 | 1000.6 |
| 20260509144541 | 58 | 165 | 7.0 | 20.0 | 0.00 | 0.00 | 0.00 | 73 | 1000.9 |
| 20260509143041 | 56 | 173 | 6.0 | 16.0 | 0.00 | 0.00 | 0.00 | 76 | 1001.3 |
| 20260509141543 | 55 | 223 | 7.0 | 15.0 | 0.00 | 0.00 | 0.00 | 78 | 1001.6 |
| 20260509140033 | 55 | 225 | 6.0 | 18.0 | 0.00 | 0.00 | 0.00 | 77 | 1001.7 |
| 20260509134534 | 55 | 223 | 6.0 | 12.0 | 0.00 | 0.00 | 0.00 | 76 | 1002.4 |
| 20260509133044 | 55 | 229 | 3.0 | 14.0 | 0.00 | 0.00 | 0.00 | 75 | 1002.0 |